Time;durP1;ratioP1;P1;durP2;ratioP2;P2;SDS_P1;SDS_P2;PMS_P1;PMS_P2;Temp;Humidity;BMP_temperature;BMP_pressure;BME280_temperature;BME280_humidity;BME280_pressure;Samples;Min_cycle;Max_cycle;Signal;HPM_P1;HPM_P2
2023/03/31 00:02:12;;;;;;;13.10;3.70;;;;;;;18.49;48.18;100382.50;5048802;28;20079;-45
2023/03/31 00:04:44;;;;;;;10.02;3.70;;;;;;;18.48;47.89;100370.94;5048554;28;20095;-45
2023/03/31 00:07:13;;;;;;;12.93;3.60;;;;;;;18.47;48.34;100376.47;5047302;28;20161;-45
2023/03/31 00:09:44;;;;;;;11.00;4.18;;;;;;;18.47;48.12;100371.94;5042248;28;20053;-45
2023/03/31 00:12:15;;;;;;;8.80;3.90;;;;;;;18.46;47.78;100372.13;5045393;28;20049;-45
2023/03/31 00:14:43;;;;;;;11.65;3.35;;;;;;;18.46;48.05;100354.16;5044586;28;20421;-47
2023/03/31 00:17:10;;;;;;;9.20;3.40;;;;;;;18.45;48.23;100348.94;5047168;28;20048;-45
2023/03/31 00:19:38;;;;;;;14.27;3.75;;;;;;;18.44;47.78;100340.06;5051669;28;20124;-45
2023/03/31 00:22:05;;;;;;;11.52;3.30;;;;;;;18.44;47.95;100342.75;5049724;28;20442;-45
2023/03/31 00:24:32;;;;;;;13.43;3.70;;;;;;;18.44;47.97;100334.69;5053190;28;20071;-45
2023/03/31 00:27:03;;;;;;;11.65;3.10;;;;;;;18.43;48.12;100324.16;5046637;28;20503;-45
2023/03/31 00:29:32;;;;;;;8.95;3.50;;;;;;;18.42;48.07;100311.75;5048786;28;20041;-45
2023/03/31 00:31:59;;;;;;;8.95;3.05;;;;;;;18.42;48.16;100311.75;5051554;28;20052;-45
2023/03/31 00:34:26;;;;;;;12.20;3.80;;;;;;;18.41;47.88;100312.72;5047979;28;20045;-45
2023/03/31 00:36:55;;;;;;;11.43;3.65;;;;;;;18.39;47.87;100295.97;5052636;28;20052;-46
2023/03/31 00:39:26;;;;;;;10.30;3.53;;;;;;;18.39;48.01;100301.34;5048063;28;20318;-45
2023/03/31 00:41:53;;;;;;;13.52;3.13;;;;;;;18.37;48.24;100298.84;5049483;28;20041;-46
2023/03/31 00:44:24;;;;;;;10.23;3.28;;;;;;;18.37;48.28;100287.25;5049621;28;20365;-46
2023/03/31 00:47:16;;;;;;;8.55;2.88;;;;;;;18.35;47.88;100278.53;5049655;28;20053;-46
2023/03/31 00:49:50;;;;;;;12.07;3.28;;;;;;;18.35;47.95;100271.31;5048795;28;20045;-46
2023/03/31 00:52:22;;;;;;;13.02;2.90;;;;;;;18.35;48.01;100267.81;5050608;28;20052;-46
2023/03/31 00:54:54;;;;;;;9.10;3.70;;;;;;;18.33;48.42;100265.31;5051668;28;20053;-46
2023/03/31 00:57:23;;;;;;;7.30;3.13;;;;;;;18.34;48.05;100255.41;5048404;28;20121;-46
2023/03/31 00:59:54;;;;;;;9.50;2.42;;;;;;;18.32;48.06;100246.69;5046051;28;20049;-46
2023/03/31 01:02:24;;;;;;;7.18;2.70;;;;;;;18.32;47.83;100247.50;5053572;28;20417;-46
2023/03/31 01:04:58;;;;;;;8.18;2.55;;;;;;;18.30;47.97;100241.50;5046684;28;20135;-46
2023/03/31 01:07:36;;;;;;;7.70;2.58;;;;;;;18.31;47.95;100239.66;5050018;28;20049;-46
2023/03/31 01:10:04;;;;;;;9.75;3.28;;;;;;;18.31;47.64;100234.28;5047368;28;20049;-46
2023/03/31 01:12:33;;;;;;;7.57;3.05;;;;;;;18.30;48.13;100233.44;5052730;28;20045;-46
2023/03/31 01:15:02;;;;;;;11.88;3.20;;;;;;;18.29;48.18;100229.09;5050831;28;20061;-46
2023/03/31 01:17:30;;;;;;;9.43;2.70;;;;;;;18.29;47.83;100217.50;5053782;28;20072;-46
2023/03/31 01:20:18;;;;;;;8.90;2.88;;;;;;;18.28;48.51;100218.53;5052071;28;20395;-46
2023/03/31 01:23:22;;;;;;;7.60;2.50;;;;;;;18.26;48.42;100191.88;5050544;28;20048;-46
2023/03/31 01:26:13;;;;;;;6.25;2.75;;;;;;;18.27;48.01;100200.75;5053487;28;20385;-46
2023/03/31 01:28:44;;;;;;;7.70;2.50;;;;;;;18.28;47.75;100189.84;5053542;28;20067;-46
2023/03/31 01:31:22;;;;;;;6.65;2.13;;;;;;;18.25;47.93;100191.03;5049959;28;20052;-46
2023/03/31 01:34:04;;;;;;;6.85;2.20;;;;;;;18.24;48.30;100186.66;5053829;28;20448;-46
2023/03/31 01:37:00;;;;;;;6.72;2.35;;;;;;;18.25;48.08;100176.75;5051546;28;20044;-46
2023/03/31 01:39:58;;;;;;;7.25;2.08;;;;;;;18.24;48.05;100165.19;5047516;28;20045;-45
2023/03/31 01:42:43;;;;;;;7.57;1.90;;;;;;;18.22;48.06;100159.19;5052765;28;20067;-46
2023/03/31 01:45:33;;;;;;;7.25;2.33;;;;;;;18.23;48.42;100155.50;5046896;28;20287;-46
2023/03/31 01:47:59;;;;;;;6.90;2.10;;;;;;;18.23;48.28;100146.59;5050387;28;20053;-46
2023/03/31 01:50:34;;;;;;;5.85;2.20;;;;;;;18.23;48.54;100146.59;5048289;28;20450;-46
2023/03/31 01:53:47;;;;;;;6.28;2.10;;;;;;;18.21;48.62;100127.16;5049734;28;20071;-46
2023/03/31 01:56:24;;;;;;;6.53;2.45;;;;;;;18.23;48.44;100128.66;5048183;28;20052;-46
2023/03/31 01:59:12;;;;;;;3.63;1.63;;;;;;;18.22;48.23;100126.16;5040623;28;20052;-46
2023/03/31 02:02:05;;;;;;;6.60;2.22;;;;;;;18.20;48.54;100110.22;5043555;28;20433;-46
2023/03/31 02:04:37;;;;;;;5.75;2.13;;;;;;;18.21;48.22;100117.28;5046398;28;20077;-46
2023/03/31 02:07:33;;;;;;;5.97;1.90;;;;;;;18.19;48.75;100107.72;5044495;28;20112;-46
2023/03/31 02:10:03;;;;;;;4.47;1.73;;;;;;;18.21;48.58;100094.97;5031594;28;20322;-46
2023/03/31 02:12:32;;;;;;;6.53;2.25;;;;;;;18.20;48.27;100093.31;5043755;28;20041;-46
2023/03/31 02:15:02;;;;;;;4.93;2.13;;;;;;;18.20;49.09;100088.78;5047415;28;20060;-46
2023/03/31 02:17:29;;;;;;;9.88;2.75;;;;;;;18.21;48.40;100084.25;5047593;28;20063;-46
2023/03/31 02:20:05;;;;;;;8.45;2.30;;;;;;;18.19;48.76;100076.38;5049514;28;20433;-45
2023/03/31 02:22:36;;;;;;;6.50;2.67;;;;;;;18.20;48.02;100075.34;5052639;28;20135;-46
2023/03/31 02:25:05;;;;;;;5.60;2.13;;;;;;;18.20;48.51;100071.84;5045694;28;20053;-46
2023/03/31 02:27:41;;;;;;;11.27;2.90;;;;;;;18.17;48.64;100070.38;5046897;28;20148;-46
2023/03/31 02:30:09;;;;;;;10.10;2.65;;;;;;;18.18;48.83;100052.44;5045487;28;20159;-46
2023/03/31 02:32:39;;;;;;;8.13;2.05;;;;;;;18.18;48.34;100052.44;5051270;28;20055;-46
2023/03/31 02:35:11;;;;;;;4.03;1.83;;;;;;;18.15;48.88;100040.19;5049876;28;20212;-46
2023/03/31 02:37:39;;;;;;;8.23;2.03;;;;;;;18.15;48.76;100036.66;5048486;28;20057;-46
2023/03/31 02:40:11;;;;;;;6.95;2.72;;;;;;;18.14;48.63;100033.16;5047645;28;20041;-46
2023/03/31 02:42:38;;;;;;;5.55;2.60;;;;;;;18.14;48.40;100029.66;5046528;28;20057;-46
2023/03/31 02:45:26;;;;;;;7.90;2.60;;;;;;;18.13;48.93;100007.34;5047209;28;20045;-46
2023/03/31 02:47:54;;;;;;;8.13;2.42;;;;;;;18.13;48.20;100009.19;5046817;28;20057;-46
2023/03/31 02:50:32;;;;;;;6.85;2.38;;;;;;;18.12;49.11;99988.75;5051583;28;20037;-45
2023/03/31 02:53:30;;;;;;;4.15;2.10;;;;;;;18.12;48.90;99988.75;5048766;28;20425;-46
2023/03/31 02:56:15;;;;;;;6.05;1.75;;;;;;;18.12;48.87;99969.97;5048330;28;20143;-45
2023/03/31 02:58:48;;;;;;;5.28;1.95;;;;;;;18.12;48.79;99969.97;5046109;28;20049;-46
2023/03/31 03:01:24;;;;;;;9.38;2.30;;;;;;;18.11;48.78;99957.56;5049121;28;20041;-46
2023/03/31 03:04:12;;;;;;;6.05;2.00;;;;;;;18.11;49.07;99954.91;5046902;28;20051;-46
2023/03/31 03:06:56;;;;;;;5.88;1.88;;;;;;;18.09;48.75;99947.03;5048211;28;20044;-46
2023/03/31 03:09:47;;;;;;;6.28;2.17;;;;;;;18.10;49.15;99939.81;5048444;28;20055;-46
2023/03/31 03:12:25;;;;;;;5.07;1.90;;;;;;;18.09;48.86;99928.25;5045433;28;20060;-46
2023/03/31 03:14:59;;;;;;;7.53;2.30;;;;;;;18.10;48.94;99921.06;5047122;28;20056;-46
2023/03/31 03:17:36;;;;;;;5.00;1.88;;;;;;;18.09;49.19;99917.53;5048185;28;20049;-46
2023/03/31 03:20:08;;;;;;;5.53;2.10;;;;;;;18.08;48.58;99913.16;5049621;28;20045;-46
2023/03/31 03:22:36;;;;;;;6.25;1.90;;;;;;;18.08;49.20;99897.06;5050687;28;20080;-46
2023/03/31 03:25:04;;;;;;;5.00;2.33;;;;;;;18.08;49.47;99898.94;5051116;28;20045;-46
2023/03/31 03:27:31;;;;;;;6.45;1.98;;;;;;;18.08;49.24;99896.25;5047483;28;20140;-46
2023/03/31 03:29:58;;;;;;;4.15;1.85;;;;;;;18.08;48.76;99893.56;5048562;28;20526;-46
2023/03/31 03:32:24;;;;;;;6.13;1.50;;;;;;;18.06;49.19;99877.66;5048885;28;20053;-46
2023/03/31 03:34:51;;;;;;;5.38;1.85;;;;;;;18.05;49.40;99865.28;5052734;28;20045;-46
2023/03/31 03:37:18;;;;;;;5.95;2.20;;;;;;;18.05;49.39;99867.09;5049211;28;20056;-46
2023/03/31 03:39:44;;;;;;;4.03;1.70;;;;;;;18.03;49.04;99853.88;5044289;28;20041;-46
2023/03/31 03:42:11;;;;;;;4.78;1.50;;;;;;;18.04;49.50;99854.72;5055767;28;20111;-46
2023/03/31 03:44:37;;;;;;;5.78;1.65;;;;;;;18.02;49.07;99854.91;5051090;28;20076;-46
2023/03/31 03:47:04;;;;;;;6.57;1.80;;;;;;;18.01;49.13;99855.91;5047213;28;20045;-46
2023/03/31 03:49:30;;;;;;;6.10;1.73;;;;;;;17.99;49.18;99842.66;5043683;28;20349;-46
2023/03/31 03:51:57;;;;;;;7.65;2.08;;;;;;;17.99;49.25;99837.31;5046802;28;20060;-46
2023/03/31 03:54:24;;;;;;;5.68;1.60;;;;;;;17.99;49.26;99820.41;5052217;28;20067;-46
2023/03/31 03:56:50;;;;;;;6.53;1.67;;;;;;;17.98;49.26;99826.78;5052642;28;20053;-46
2023/03/31 03:59:17;;;;;;;6.03;1.80;;;;;;;17.97;49.21;99820.59;5048588;28;20077;-46
2023/03/31 04:01:43;;;;;;;5.60;1.83;;;;;;;17.96;49.54;99807.34;5049930;28;20341;-46
2023/03/31 04:04:10;;;;;;;6.80;1.50;;;;;;;17.95;49.31;99805.69;5050368;28;20098;-46
2023/03/31 04:06:36;;;;;;;6.90;1.85;;;;;;;17.94;49.75;99787.94;5050935;28;20349;-45
2023/03/31 04:09:04;;;;;;;6.70;1.65;;;;;;;17.93;49.27;99784.41;5045513;28;20045;-46
2023/03/31 04:11:31;;;;;;;4.57;1.88;;;;;;;17.92;49.30;99782.72;5049239;28;20167;-46
2023/03/31 04:13:57;;;;;;;6.40;1.80;;;;;;;17.90;49.77;99771.38;5046708;28;20065;-46
2023/03/31 04:16:24;;;;;;;3.97;1.40;;;;;;;17.90;49.84;99759.81;5045532;28;20064;-46
2023/03/31 04:18:55;;;;;;;6.20;1.50;;;;;;;17.90;49.84;99751.78;5048390;28;20044;-45
2023/03/31 04:21:22;;;;;;;4.03;1.60;;;;;;;17.89;49.66;99747.41;5053992;28;20132;-46
2023/03/31 04:23:57;;;;;;;6.20;1.80;;;;;;;17.88;49.63;99735.00;5048177;28;20055;-46
2023/03/31 04:26:30;;;;;;;7.35;1.92;;;;;;;17.88;49.63;99729.66;5054867;28;20099;-46
2023/03/31 04:29:00;;;;;;;4.67;1.40;;;;;;;17.87;49.61;99722.63;5050741;28;20361;-46
2023/03/31 04:31:29;;;;;;;4.05;1.30;;;;;;;17.86;49.47;99723.66;5041964;28;20182;-46
2023/03/31 04:34:01;;;;;;;6.45;1.70;;;;;;;17.86;49.44;99715.63;5051102;28;20102;-46
2023/03/31 04:36:30;;;;;;;3.95;1.27;;;;;;;17.85;49.60;99704.06;5051506;28;20049;-46
2023/03/31 04:38:56;;;;;;;5.40;1.50;;;;;;;17.85;49.39;99697.84;5047104;28;20417;-46
2023/03/31 04:41:26;;;;;;;5.03;1.90;;;;;;;17.85;49.74;99696.03;5047850;28;20056;-46
2023/03/31 04:43:53;;;;;;;4.25;1.20;;;;;;;17.83;49.54;99686.47;5049491;28;20081;-46
2023/03/31 04:46:20;;;;;;;4.68;1.58;;;;;;;17.83;49.79;99683.81;5045604;28;20225;-46
2023/03/31 04:48:47;;;;;;;7.10;1.63;;;;;;;17.83;49.87;99683.81;5049995;28;20064;-46
2023/03/31 04:51:15;;;;;;;4.10;1.50;;;;;;;17.82;49.61;99669.56;5053149;28;20049;-45
2023/03/31 04:53:41;;;;;;;4.15;1.83;;;;;;;17.82;49.79;99663.38;5054611;28;20084;-46
2023/03/31 04:56:08;;;;;;;3.78;1.35;;;;;;;17.81;49.86;99659.88;5053817;28;20132;-45
2023/03/31 04:58:35;;;;;;;5.90;1.90;;;;;;;17.81;49.71;99649.16;5054449;28;20053;-45
2023/03/31 05:01:01;;;;;;;5.63;1.48;;;;;;;17.81;49.93;99653.66;5048943;28;20440;-45
2023/03/31 05:03:28;;;;;;;5.55;1.70;;;;;;;17.80;49.68;99649.31;5053262;28;20048;-45
2023/03/31 05:05:55;;;;;;;4.18;1.65;;;;;;;17.81;49.93;99648.28;5054316;28;20053;-45
2023/03/31 05:08:21;;;;;;;6.10;1.50;;;;;;;17.80;49.73;99639.41;5055026;28;20059;-45
2023/03/31 05:10:48;;;;;;;4.43;1.80;;;;;;;17.80;49.62;99633.22;5054124;28;20440;-45
2023/03/31 05:13:14;;;;;;;4.68;1.45;;;;;;;17.80;50.06;99635.91;5052233;28;20075;-45
2023/03/31 05:15:43;;;;;;;8.55;2.08;;;;;;;17.80;49.85;99633.22;5052364;28;20325;-45
2023/03/31 05:18:10;;;;;;;4.63;1.55;;;;;;;17.78;49.63;99625.38;5053142;28;20053;-45
2023/03/31 05:20:37;;;;;;;5.10;1.38;;;;;;;17.79;49.92;99623.53;5051573;28;20047;-45
2023/03/31 05:23:04;;;;;;;5.70;1.38;;;;;;;17.79;49.74;99615.50;5052311;28;20051;-45
2023/03/31 05:25:32;;;;;;;4.53;1.70;;;;;;;17.76;50.05;99609.47;5054503;28;20048;-45
2023/03/31 05:27:59;;;;;;;5.43;1.65;;;;;;;17.77;49.82;99613.00;5053916;28;20068;-45
2023/03/31 05:30:27;;;;;;;5.45;1.95;;;;;;;17.79;49.78;99604.78;5049162;28;20045;-46
2023/03/31 05:32:55;;;;;;;4.97;1.35;;;;;;;17.77;49.59;99596.94;5046304;28;20045;-45
2023/03/31 05:35:22;;;;;;;6.15;1.50;;;;;;;17.77;49.93;99596.94;5052001;28;20048;-45
2023/03/31 05:37:48;;;;;;;4.93;1.88;;;;;;;17.76;49.88;99588.03;5054054;28;20061;-45
2023/03/31 05:40:15;;;;;;;7.07;2.42;;;;;;;17.77;49.95;99594.25;5052722;28;20045;-45
2023/03/31 05:42:42;;;;;;;8.80;1.77;;;;;;;17.76;49.91;99590.72;5051553;28;20044;-45
2023/03/31 05:45:09;;;;;;;4.57;1.50;;;;;;;17.78;49.89;99587.03;5047448;28;20063;-45
2023/03/31 05:47:35;;;;;;;7.10;2.03;;;;;;;17.78;50.07;99589.72;5053755;28;20456;-45
2023/03/31 05:50:06;;;;;;;4.43;1.75;;;;;;;17.75;50.04;99583.69;5052949;28;20041;-45
2023/03/31 05:52:33;;;;;;;3.55;1.48;;;;;;;17.76;49.78;99571.13;5052405;28;20143;-46
2023/03/31 05:54:59;;;;;;;6.80;1.77;;;;;;;17.76;49.57;99574.63;5052052;28;20061;-45
2023/03/31 05:57:26;;;;;;;3.97;1.80;;;;;;;17.77;49.82;99572.81;5051974;28;20055;-45
2023/03/31 05:59:53;;;;;;;6.13;1.80;;;;;;;17.78;50.01;99576.31;5051533;28;20421;-45
2023/03/31 06:02:19;;;;;;;4.80;1.80;;;;;;;17.75;49.76;99569.47;5053146;28;20041;-46
2023/03/31 06:04:46;;;;;;;4.00;1.30;;;;;;;17.76;49.94;99561.22;5052556;28;20355;-45
2023/03/31 06:07:13;;;;;;;4.00;1.45;;;;;;;17.76;50.03;99561.22;5053247;28;20053;-45
2023/03/31 06:09:40;;;;;;;4.97;1.67;;;;;;;17.76;49.94;99561.22;5048312;28;20087;-45
2023/03/31 06:12:07;;;;;;;5.90;1.75;;;;;;;17.75;49.64;99554.22;5049563;28;20040;-45
2023/03/31 06:14:33;;;;;;;4.88;1.50;;;;;;;17.74;49.63;99552.56;5049779;28;20562;-45
2023/03/31 06:17:00;;;;;;;3.80;1.80;;;;;;;17.74;49.63;99555.22;5041723;28;20075;-46
2023/03/31 06:19:27;;;;;;;3.63;1.40;;;;;;;17.75;49.89;99553.38;5049867;28;20049;-46
2023/03/31 06:21:53;;;;;;;4.03;1.42;;;;;;;17.74;49.74;99555.22;5052875;28;20041;-46
2023/03/31 06:24:20;;;;;;;5.15;1.85;;;;;;;17.75;49.30;99554.22;5050303;28;20049;-46
2023/03/31 06:26:47;;;;;;;5.40;1.50;;;;;;;17.76;49.81;99549.69;5048765;28;20049;-46
2023/03/31 06:29:13;;;;;;;4.32;1.08;;;;;;;17.75;49.68;99542.66;5052929;28;20433;-45
2023/03/31 06:31:40;;;;;;;3.17;1.63;;;;;;;17.76;49.73;99545.16;5048583;28;20088;-46
2023/03/31 06:34:06;;;;;;;2.65;1.10;;;;;;;17.75;49.73;99548.03;5043623;28;20342;-44
2023/03/31 06:36:33;;;;;;;4.15;1.60;;;;;;;17.75;50.03;99538.13;5049785;28;20389;-45
2023/03/31 06:39:00;;;;;;;4.53;1.40;;;;;;;17.75;49.61;99538.13;5052612;28;20494;-45
2023/03/31 06:41:27;;;;;;;4.35;1.60;;;;;;;17.75;49.51;99535.44;5047483;28;20037;-45
2023/03/31 06:43:53;;;;;;;4.47;1.40;;;;;;;17.77;49.53;99535.28;5051350;28;20080;-46
2023/03/31 06:46:20;;;;;;;4.35;1.50;;;;;;;17.76;49.69;99525.56;5046967;28;20064;-45
2023/03/31 06:48:47;;;;;;;4.18;1.90;;;;;;;17.76;49.43;99530.91;5049684;28;20056;-45
2023/03/31 06:51:13;;;;;;;5.35;1.83;;;;;;;17.77;49.64;99529.94;5050611;28;20068;-46
2023/03/31 06:53:40;;;;;;;4.80;1.70;;;;;;;17.78;49.52;99525.41;5050161;28;20057;-45
2023/03/31 06:56:07;;;;;;;3.63;1.40;;;;;;;17.78;49.95;99525.41;5049330;28;20049;-45
2023/03/31 06:58:34;;;;;;;3.22;1.25;;;;;;;17.77;49.38;99521.88;5051759;28;20106;-45
2023/03/31 07:01:02;;;;;;;3.00;1.40;;;;;;;17.75;49.70;99519.38;5049568;28;20049;-45
2023/03/31 07:03:30;;;;;;;4.43;1.60;;;;;;;17.77;49.65;99516.53;5051023;28;20052;-46
2023/03/31 07:05:57;;;;;;;2.72;1.40;;;;;;;17.76;49.56;99506.81;5051256;28;20433;-46
2023/03/31 07:08:24;;;;;;;4.88;1.40;;;;;;;17.76;49.70;99518.34;5049442;28;20052;-46
2023/03/31 07:10:58;;;;;;;4.28;1.30;;;;;;;17.76;50.02;99502.28;5052453;28;20048;-45
2023/03/31 07:13:26;;;;;;;3.83;1.20;;;;;;;17.75;49.55;99508.66;5050039;28;20078;-45
2023/03/31 07:15:53;;;;;;;5.13;1.38;;;;;;;17.75;49.65;99502.47;5045486;28;20055;-45
2023/03/31 07:18:20;;;;;;;3.25;1.38;;;;;;;17.76;49.66;99501.44;5049202;28;20160;-45
2023/03/31 07:20:49;;;;;;;4.88;1.40;;;;;;;17.77;49.78;99500.44;5051164;28;20127;-45
2023/03/31 07:23:16;;;;;;;2.70;1.45;;;;;;;17.78;49.58;99501.28;5049536;28;20055;-45
2023/03/31 07:25:43;;;;;;;3.45;1.10;;;;;;;17.79;49.54;99500.25;5049184;28;20049;-46
2023/03/31 07:28:10;;;;;;;3.50;1.10;;;;;;;17.79;49.30;99500.25;5049406;28;20615;-46
2023/03/31 07:30:36;;;;;;;3.53;1.38;;;;;;;17.79;49.59;99498.41;5045081;28;20441;-45
2023/03/31 07:33:04;;;;;;;2.97;1.20;;;;;;;17.80;49.75;99493.88;5049267;28;20041;-45
2023/03/31 07:35:30;;;;;;;3.45;1.48;;;;;;;17.81;49.59;99487.47;5049006;28;20053;-45
2023/03/31 07:37:57;;;;;;;3.72;1.17;;;;;;;17.81;49.60;99491.03;5048670;28;20098;-46
2023/03/31 07:40:27;;;;;;;3.22;1.00;;;;;;;17.82;49.69;99491.84;5049567;28;20052;-45
2023/03/31 07:42:54;;;;;;;3.40;1.30;;;;;;;17.82;49.42;99498.03;5050199;28;20045;-46
2023/03/31 07:45:23;;;;;;;3.22;1.10;;;;;;;17.82;49.79;99490.00;5046106;28;20057;-45
2023/03/31 07:47:51;;;;;;;4.38;1.80;;;;;;;17.83;49.62;99488.16;5046766;28;20053;-46
2023/03/31 07:50:18;;;;;;;6.20;1.48;;;;;;;17.83;49.53;99491.66;5048565;28;20089;-46
2023/03/31 07:52:44;;;;;;;3.10;1.33;;;;;;;17.83;49.68;99483.63;5048248;28;20051;-45
2023/03/31 07:55:13;;;;;;;4.03;1.45;;;;;;;17.83;49.60;99475.56;5050410;28;20314;-46
2023/03/31 07:57:40;;;;;;;3.35;1.20;;;;;;;17.86;49.64;99479.75;5050200;28;20131;-45
2023/03/31 08:00:10;;;;;;;4.80;1.40;;;;;;;17.88;49.56;99480.38;5045539;28;20044;-46
2023/03/31 08:02:38;;;;;;;1.95;1.10;;;;;;;17.90;49.60;99481.84;5050356;28;20128;-45
2023/03/31 08:05:06;;;;;;;2.90;1.10;;;;;;;17.93;49.78;99467.22;5043571;28;20049;-45
2023/03/31 08:07:34;;;;;;;3.55;1.35;;;;;;;17.96;49.88;99474.91;5051793;28;20056;-45
2023/03/31 08:10:04;;;;;;;3.47;1.10;;;;;;;17.98;49.38;99475.56;5047445;28;20049;-45
2023/03/31 08:12:31;;;;;;;4.60;1.48;;;;;;;17.99;49.38;99463.81;5052314;28;20657;-46
2023/03/31 08:14:57;;;;;;;3.78;1.40;;;;;;;18.00;49.17;99465.47;5047494;28;20068;-45
2023/03/31 08:17:24;;;;;;;5.47;1.67;;;;;;;18.02;49.37;99463.44;5048886;28;20448;-45
2023/03/31 08:19:51;;;;;;;3.40;1.30;;;;;;;18.03;49.62;99457.06;5049640;28;20053;-45
2023/03/31 08:22:17;;;;;;;3.63;1.02;;;;;;;18.04;49.50;99450.69;5048143;28;20041;-45
2023/03/31 08:24:44;;;;;;;3.55;1.30;;;;;;;18.06;49.74;99451.34;5046512;28;20052;-45
2023/03/31 08:27:10;;;;;;;4.60;1.20;;;;;;;18.07;49.06;99453.00;5050280;28;20063;-45
2023/03/31 08:29:38;;;;;;;3.75;1.20;;;;;;;18.08;49.47;99433.19;5051686;28;20409;-45
2023/03/31 08:32:05;;;;;;;2.72;1.00;;;;;;;18.09;48.84;99442.91;5048250;28;20043;-45
2023/03/31 08:34:32;;;;;;;3.15;1.30;;;;;;;18.10;49.54;99435.72;5049746;28;20110;-45
2023/03/31 08:36:59;;;;;;;3.42;1.38;;;;;;;18.09;49.23;99429.50;5051688;28;20041;-46
2023/03/31 08:39:26;;;;;;;6.10;1.30;;;;;;;18.09;49.46;99425.97;5052245;28;20053;-45
2023/03/31 08:42:07;;;;;;;3.78;1.58;;;;;;;18.07;49.16;99439.59;5055087;28;20081;-45
2023/03/31 08:44:57;;;;;;;4.72;1.70;;;;;;;18.04;49.27;99418.50;5045924;28;20317;-46
2023/03/31 08:47:26;;;;;;;3.58;1.40;;;;;;;18.03;49.42;99419.53;5054468;28;20063;-45
2023/03/31 08:49:57;;;;;;;6.03;1.92;;;;;;;18.01;49.14;99413.53;5054763;28;20329;-46
2023/03/31 08:52:39;;;;;;;4.40;1.40;;;;;;;17.97;49.86;99422.97;5054297;28;20076;-45
2023/03/31 08:55:16;;;;;;;4.38;1.33;;;;;;;17.94;49.44;99424.19;5053839;28;20407;-45
2023/03/31 08:58:13;;;;;;;6.32;1.50;;;;;;;17.92;49.81;99420.00;5052444;28;20454;-45
2023/03/31 09:01:07;;;;;;;4.55;1.60;;;;;;;17.92;49.81;99428.06;5047629;28;20060;-45
2023/03/31 09:03:49;;;;;;;3.97;1.50;;;;;;;17.92;50.09;99420.00;5054738;28;20132;-46
2023/03/31 09:06:23;;;;;;;5.13;1.65;;;;;;;17.92;49.91;99409.28;5054036;28;20070;-46
2023/03/31 09:08:54;;;;;;;3.33;1.38;;;;;;;17.95;50.10;99412.41;5054430;28;20060;-46
2023/03/31 09:11:35;;;;;;;5.15;1.35;;;;;;;17.98;49.97;99413.91;5054527;28;20041;-45
2023/03/31 09:14:25;;;;;;;5.60;2.13;;;;;;;17.99;50.17;99405.66;5052058;28;20091;-46
2023/03/31 09:17:25;;;;;;;3.65;1.20;;;;;;;18.03;49.91;99406.13;5053762;28;20128;-45
2023/03/31 09:19:57;;;;;;;5.38;1.35;;;;;;;18.05;49.40;99404.09;5048942;28;20057;-45
2023/03/31 09:22:33;;;;;;;4.43;1.40;;;;;;;18.07;50.22;99395.84;5053270;28;20052;-45
2023/03/31 09:25:09;;;;;;;7.85;1.70;;;;;;;18.08;50.22;99384.94;5053867;28;20136;-45
2023/03/31 09:27:41;;;;;;;6.15;1.70;;;;;;;18.11;49.90;99392.59;5054938;28;20057;-45
2023/03/31 09:30:14;;;;;;;3.72;1.77;;;;;;;18.14;50.11;99386.03;5055513;28;20102;-46
2023/03/31 09:32:41;;;;;;;4.75;1.90;;;;;;;18.17;50.05;99378.44;5050473;28;20049;-45
2023/03/31 09:35:27;;;;;;;9.10;2.10;;;;;;;18.18;50.04;99374.75;5049635;28;20107;-45
2023/03/31 09:37:54;;;;;;;5.55;1.55;;;;;;;18.21;50.25;99385.09;5052505;28;20075;-45
2023/03/31 09:40:23;;;;;;;8.43;2.25;;;;;;;18.23;49.79;99369.63;5052972;28;20442;-45
2023/03/31 09:43:26;;;;;;;8.32;1.73;;;;;;;18.24;50.35;99382.00;5053711;28;20044;-45
2023/03/31 09:45:54;;;;;;;9.50;1.95;;;;;;;18.28;49.86;99376.28;5050482;28;20128;-45
2023/03/31 09:48:35;;;;;;;10.57;2.58;;;;;;;18.32;49.63;99369.50;5053915;28;20060;-45
2023/03/31 09:51:05;;;;;;;6.15;1.80;;;;;;;18.33;49.95;99366.66;5049413;28;20429;-46
2023/03/31 09:54:06;;;;;;;10.60;2.30;;;;;;;18.33;49.48;99358.59;5053841;28;20072;-45
2023/03/31 09:56:42;;;;;;;6.50;2.50;;;;;;;18.35;49.52;99351.19;5051067;28;20124;-45
2023/03/31 09:59:33;;;;;;;8.60;2.40;;;;;;;18.36;49.63;99362.72;5041742;28;20049;-45
2023/03/31 10:02:04;;;;;;;6.65;2.40;;;;;;;18.38;49.53;99355.34;5048539;28;20391;-45
2023/03/31 10:04:33;;;;;;;6.13;1.67;;;;;;;18.39;49.53;99354.31;5051623;28;20388;-45
2023/03/31 10:07:03;;;;;;;9.20;2.60;;;;;;;18.38;49.02;99358.03;5050640;28;20148;-45
2023/03/31 10:09:32;;;;;;;8.38;2.10;;;;;;;18.37;49.15;99354.50;5053573;28;20068;-45
2023/03/31 10:12:05;;;;;;;11.98;2.30;;;;;;;18.38;49.42;99350.78;5050909;28;20084;-45
2023/03/31 10:14:42;;;;;;;8.35;2.20;;;;;;;18.39;49.88;99351.63;5050983;28;20512;-45
2023/03/31 10:17:13;;;;;;;11.75;3.75;;;;;;;18.40;49.61;99343.38;5051898;28;20140;-45
2023/03/31 10:19:48;;;;;;;10.45;2.72;;;;;;;18.40;49.47;99335.31;5050289;28;20132;-45
2023/03/31 10:22:16;;;;;;;7.28;2.40;;;;;;;18.41;49.35;99325.41;5053721;28;20349;-45
2023/03/31 10:24:47;;;;;;;10.60;2.53;;;;;;;18.42;49.84;99332.47;5053311;28;20048;-46
2023/03/31 10:27:16;;;;;;;10.85;2.45;;;;;;;18.42;48.76;99327.09;5053599;28;20057;-45
2023/03/31 10:29:45;;;;;;;10.18;2.25;;;;;;;18.43;49.13;99326.91;5048026;28;20131;-43
2023/03/31 10:32:27;;;;;;;8.00;2.40;;;;;;;18.43;48.89;99334.94;5052408;28;20183;-45
2023/03/31 10:34:56;;;;;;;10.65;2.70;;;;;;;18.44;48.92;99333.09;5051102;28;20045;-44
2023/03/31 10:37:26;;;;;;;7.53;2.10;;;;;;;18.44;49.18;99330.41;5053130;28;20045;-44
2023/03/31 10:40:06;;;;;;;8.00;2.78;;;;;;;18.43;49.24;99337.63;5052525;28;20170;-45
2023/03/31 10:42:32;;;;;;;8.57;2.45;;;;;;;18.44;49.25;99328.56;5048485;28;20369;-44
2023/03/31 10:45:35;;;;;;;9.00;2.45;;;;;;;18.43;49.26;99320.72;5048856;28;20104;-44
2023/03/31 10:48:15;;;;;;;6.38;2.20;;;;;;;18.45;49.19;99319.50;5050948;28;20049;-45
2023/03/31 10:50:42;;;;;;;9.57;2.40;;;;;;;18.45;48.97;99326.69;5051270;28;20104;-45
2023/03/31 10:53:13;;;;;;;7.00;2.30;;;;;;;18.45;48.75;99318.66;5049537;28;20041;-45
2023/03/31 10:56:05;;;;;;;10.30;2.53;;;;;;;18.44;49.25;99323.19;5052586;28;20348;-44
2023/03/31 10:58:53;;;;;;;7.47;1.92;;;;;;;18.45;49.09;99322.19;5045180;28;20053;-44
2023/03/31 11:02:00;;;;;;;10.63;2.40;;;;;;;18.45;49.45;99311.44;5046884;28;20160;-44
2023/03/31 11:05:05;;;;;;;11.00;1.88;;;;;;;18.46;48.93;99313.09;5048539;28;20049;-44
2023/03/31 11:07:46;;;;;;;10.73;2.53;;;;;;;18.47;49.16;99309.38;5051029;28;20055;-44
2023/03/31 11:10:16;;;;;;;10.57;2.50;;;;;;;18.47;48.80;99324.66;5050166;28;20356;-44
2023/03/31 11:12:51;;;;;;;8.70;2.33;;;;;;;18.47;49.08;99330.03;5053605;28;20052;-44
2023/03/31 11:15:37;;;;;;;11.70;2.20;;;;;;;18.46;49.00;99323.00;5046254;28;20062;-44
2023/03/31 11:18:24;;;;;;;8.70;3.15;;;;;;;18.45;48.67;99326.69;5042084;28;20080;-45
2023/03/31 11:20:57;;;;;;;9.27;2.08;;;;;;;18.44;49.21;99317.00;5043574;28;22250;-44
2023/03/31 11:23:24;;;;;;;;;;;;;;;18.42;49.20;99325.25;5045596;28;20421;-44
2023/03/31 11:25:54;;;;;;;8.18;2.38;;;;;;;18.45;49.58;99314.13;5040278;28;19927;-44
2023/03/31 11:28:40;;;;;;;9.15;2.60;;;;;;;18.45;49.22;99315.97;5045221;28;20096;-45
2023/03/31 11:31:31;;;;;;;8.57;1.98;;;;;;;18.42;49.29;99308.31;5046602;28;20045;-45
2023/03/31 11:34:10;;;;;;;9.57;2.45;;;;;;;18.42;49.03;99302.97;5041347;28;20060;-45
2023/03/31 11:37:04;;;;;;;8.93;2.10;;;;;;;18.40;49.28;99311.19;5045013;28;20080;-45
2023/03/31 11:40:11;;;;;;;7.50;1.97;;;;;;;18.38;49.39;99299.84;5046642;28;20063;-44
2023/03/31 11:42:56;;;;;;;8.52;2.47;;;;;;;18.38;49.09;99307.88;5042558;28;20712;-44
2023/03/31 11:45:32;;;;;;;5.93;1.73;;;;;;;18.38;49.25;99301.69;5043339;28;20132;-44
2023/03/31 11:48:05;;;;;;;8.63;2.15;;;;;;;18.39;49.45;99285.38;5045575;28;20060;-44
2023/03/31 11:50:38;;;;;;;11.63;2.65;;;;;;;18.38;49.95;99289.09;5043562;28;20055;-45
2023/03/31 11:53:17;;;;;;;8.60;2.35;;;;;;;18.40;49.53;99284.34;5046375;28;20310;-45
2023/03/31 11:55:49;;;;;;;6.60;1.90;;;;;;;18.41;49.84;99277.13;5045930;28;20361;-44
2023/03/31 11:58:29;;;;;;;8.75;2.05;;;;;;;18.43;49.51;99288.50;5046308;28;20056;-44